createdAt,value
2022-11-28T00:01:23.975Z,3.50
2022-11-28T00:03:50.900Z,3.40
2022-11-28T00:06:18.428Z,3.40
2022-11-28T00:08:45.699Z,3.50
2022-11-28T00:11:14.941Z,3.50
2022-11-28T00:13:42.658Z,3.40
2022-11-28T00:16:13.630Z,3.50
2022-11-28T00:18:40.472Z,3.40
2022-11-28T00:21:09.828Z,3.40
2022-11-28T00:23:36.715Z,3.40
2022-11-28T00:26:09.617Z,3.40
2022-11-28T00:28:37.473Z,3.40
2022-11-28T00:31:04.493Z,3.50
2022-11-28T00:33:34.591Z,3.40
2022-11-28T00:36:03.126Z,3.50
2022-11-28T00:38:30.581Z,3.50
2022-11-28T00:41:01.820Z,3.50
2022-11-28T00:43:29.059Z,3.40
2022-11-28T00:45:56.370Z,3.50
2022-11-28T00:48:23.854Z,3.50
2022-11-28T00:50:51.297Z,3.40
2022-11-28T00:53:18.210Z,3.40
2022-11-28T00:55:45.080Z,3.40
2022-11-28T00:58:11.893Z,3.40
2022-11-28T01:00:39.279Z,3.40
2022-11-28T01:03:06.140Z,3.40
2022-11-28T01:05:32.960Z,3.40
2022-11-28T01:07:59.835Z,3.40
2022-11-28T01:10:27.183Z,3.40
2022-11-28T01:12:54.199Z,3.40
2022-11-28T01:15:21.147Z,3.40
2022-11-28T01:17:47.989Z,3.40
2022-11-28T01:20:14.945Z,3.40
2022-11-28T01:22:41.889Z,3.40
2022-11-28T01:25:08.737Z,3.40
2022-11-28T01:27:35.544Z,3.30
2022-11-28T01:30:02.358Z,3.40
2022-11-28T01:32:29.195Z,3.40
2022-11-28T01:34:56.113Z,3.30
2022-11-28T01:37:22.973Z,3.30
2022-11-28T01:39:49.768Z,3.30
2022-11-28T01:42:20.229Z,3.30
2022-11-28T01:44:50.043Z,3.30
2022-11-28T01:47:25.765Z,3.20
2022-11-28T01:49:53.944Z,3.20
2022-11-28T01:52:22.053Z,3.20
2022-11-28T01:54:53.335Z,3.30
2022-11-28T01:57:24.191Z,3.20
2022-11-28T02:00:01.907Z,3.30
2022-11-28T02:02:41.624Z,3.20
2022-11-28T02:05:08.932Z,3.30
2022-11-28T02:07:36.881Z,3.30
2022-11-28T02:10:07.904Z,3.30
2022-11-28T02:12:59.874Z,3.30
2022-11-28T02:15:55.849Z,3.30
2022-11-28T02:18:55.108Z,3.30
2022-11-28T02:21:30.189Z,3.30
2022-11-28T02:24:26.870Z,3.40
2022-11-28T02:27:12.392Z,3.50
2022-11-28T02:29:40.104Z,3.50
2022-11-28T02:32:43.102Z,3.50
2022-11-28T02:35:21.558Z,3.50
2022-11-28T02:37:58.278Z,3.50
2022-11-28T02:40:37.546Z,3.50
2022-11-28T02:47:31.430Z,3.40
2022-11-28T02:50:05.077Z,3.40
2022-11-28T02:52:39.584Z,3.40
2022-11-28T02:55:07.794Z,3.40
2022-11-28T02:57:41.627Z,3.40
2022-11-28T03:00:32.119Z,3.50
2022-11-28T03:03:17.868Z,3.50
2022-11-28T03:06:23.041Z,3.50
2022-11-28T03:08:58.719Z,3.50
2022-11-28T03:11:42.531Z,3.50
2022-11-28T03:14:30.872Z,3.40
2022-11-28T03:17:18.991Z,3.40
2022-11-28T03:19:59.395Z,3.40
2022-11-28T03:22:31.865Z,3.40
2022-11-28T03:25:50.170Z,3.30
2022-11-28T03:28:26.916Z,3.40
2022-11-28T03:31:09.372Z,3.30
2022-11-28T03:33:44.539Z,3.40
2022-11-28T03:36:20.890Z,3.40
2022-11-28T03:39:00.485Z,3.40
2022-11-28T03:41:50.126Z,3.50
2022-11-28T03:44:23.324Z,3.50
2022-11-28T03:46:51.863Z,3.50
2022-11-28T03:49:26.005Z,3.60
2022-11-28T03:52:00.808Z,3.50
2022-11-28T03:54:50.748Z,3.50
2022-11-28T03:57:45.985Z,3.50
2022-11-28T04:00:13.995Z,3.40
2022-11-28T04:03:02.698Z,3.40
2022-11-28T04:05:45.483Z,3.40
2022-11-28T04:08:25.944Z,3.40
2022-11-28T04:11:12.858Z,3.40
2022-11-28T04:13:54.760Z,3.40
2022-11-28T04:16:42.701Z,3.40
2022-11-28T04:19:38.518Z,3.30
2022-11-28T04:22:37.663Z,3.30
2022-11-28T04:25:10.661Z,3.30
2022-11-28T04:27:46.532Z,3.30
2022-11-28T04:30:14.926Z,3.20
2022-11-28T04:32:48.073Z,3.20
2022-11-28T04:35:27.036Z,3.20
2022-11-28T04:37:55.262Z,3.20
2022-11-28T04:40:24.811Z,3.20
2022-11-28T04:43:00.373Z,3.20
2022-11-28T04:45:32.261Z,3.10
2022-11-28T04:47:59.710Z,3.10
2022-11-28T04:50:35.022Z,3.10
2022-11-28T04:53:28.548Z,3.10
2022-11-28T04:56:01.651Z,3.10
2022-11-28T04:58:36.301Z,3.10
2022-11-28T05:01:06.378Z,3.10
2022-11-28T05:03:33.703Z,3.10
2022-11-28T05:06:01.966Z,3.00
2022-11-28T05:08:28.942Z,3.00
2022-11-28T05:10:55.731Z,3.00
2022-11-28T05:13:22.695Z,2.90
2022-11-28T05:15:49.776Z,2.90
2022-11-28T05:18:16.578Z,2.90
2022-11-28T05:20:43.843Z,2.90
2022-11-28T05:23:11.142Z,2.90
2022-11-28T05:25:41.482Z,2.90
2022-11-28T05:28:09.216Z,2.90
2022-11-28T05:30:36.034Z,2.90
2022-11-28T05:33:03.696Z,2.90
2022-11-28T05:35:30.521Z,2.80
2022-11-28T05:37:57.361Z,2.80
2022-11-28T05:40:24.231Z,2.80
2022-11-28T05:42:51.091Z,2.90
2022-11-28T05:45:17.940Z,2.90
2022-11-28T05:47:44.971Z,2.80
2022-11-28T05:50:11.925Z,2.80
2022-11-28T05:52:38.851Z,2.80
2022-11-28T05:55:06.267Z,2.80
2022-11-28T05:57:33.586Z,2.80
2022-11-28T06:00:00.609Z,2.80
2022-11-28T06:02:27.483Z,2.90
2022-11-28T06:04:54.680Z,2.90
2022-11-28T06:07:21.589Z,2.80
2022-11-28T06:09:48.578Z,2.80
2022-11-28T06:12:15.465Z,2.80
2022-11-28T06:14:42.253Z,2.80
2022-11-28T06:17:09.136Z,2.80
2022-11-28T06:19:36.216Z,2.80
2022-11-28T06:22:03.655Z,2.80
2022-11-28T06:24:30.450Z,2.80
2022-11-28T06:26:57.264Z,2.70
2022-11-28T06:29:24.064Z,2.70
2022-11-28T06:31:51.012Z,2.70
2022-11-28T06:34:17.855Z,2.70
2022-11-28T06:36:45.270Z,2.80
2022-11-28T06:39:16.450Z,2.80
2022-11-28T06:41:43.925Z,2.80
2022-11-28T06:44:14.636Z,2.80
2022-11-28T06:46:42.326Z,2.90
2022-11-28T06:49:12.990Z,2.90
2022-11-28T06:51:41.479Z,2.90
2022-11-28T06:54:08.824Z,2.90
2022-11-28T06:56:35.747Z,2.90
2022-11-28T06:59:02.788Z,3.00
2022-11-28T07:01:31.337Z,3.60
2022-11-28T07:03:58.487Z,3.80
2022-11-28T07:06:26.420Z,3.90
2022-11-28T07:08:53.788Z,4.00
2022-11-28T07:11:29.685Z,3.80
2022-11-28T07:13:57.687Z,3.50
2022-11-28T07:16:26.923Z,3.40
2022-11-28T07:18:54.804Z,3.30
2022-11-28T07:21:24.120Z,3.30
2022-11-28T07:23:51.588Z,3.30
2022-11-28T07:26:20.176Z,3.30
2022-11-28T07:28:48.465Z,3.20
2022-11-28T07:31:20.888Z,3.30
2022-11-28T07:33:50.424Z,3.40
2022-11-28T07:36:26.180Z,3.40
2022-11-28T07:38:58.672Z,3.50
2022-11-28T07:41:27.403Z,3.50
2022-11-28T07:44:00.504Z,3.60
2022-11-28T07:46:28.721Z,3.60
2022-11-28T07:48:56.673Z,3.60
2022-11-28T07:51:26.314Z,3.70
2022-11-28T07:53:53.855Z,3.70
2022-11-28T07:56:24.897Z,3.70
2022-11-28T07:58:51.860Z,3.70
2022-11-28T08:01:28.327Z,3.80
2022-11-28T08:03:56.568Z,3.70
2022-11-28T08:06:25.671Z,3.70
2022-11-28T08:08:53.394Z,3.80
2022-11-28T08:11:22.292Z,3.80
2022-11-28T08:13:49.343Z,3.80
2022-11-28T08:16:22.037Z,3.90
2022-11-28T08:18:50.914Z,3.90
2022-11-28T08:21:20.184Z,3.90
2022-11-28T08:23:47.159Z,4.00
2022-11-28T08:26:16.519Z,4.10
2022-11-28T08:28:43.999Z,4.10
2022-11-28T08:31:16.623Z,4.20
2022-11-28T08:33:44.319Z,4.20
2022-11-28T08:36:14.427Z,4.20
2022-11-28T08:38:49.949Z,4.30
2022-11-28T08:41:30.087Z,4.30
2022-11-28T08:43:56.884Z,4.40
2022-11-28T08:46:23.797Z,4.40
2022-11-28T08:48:52.719Z,4.40
2022-11-28T08:51:22.275Z,4.40
2022-11-28T08:53:50.463Z,4.40
2022-11-28T08:56:19.890Z,4.50
2022-11-28T08:58:47.362Z,4.50
2022-11-28T09:01:25.104Z,4.50
2022-11-28T09:03:53.323Z,4.50
2022-11-28T09:06:22.276Z,4.50
2022-11-28T09:08:50.551Z,4.80
2022-11-28T09:11:19.798Z,4.80
2022-11-28T09:13:47.087Z,4.90
2022-11-28T09:16:14.643Z,5.00
2022-11-28T09:18:41.642Z,5.10
2022-11-28T09:21:10.326Z,5.20
2022-11-28T09:23:38.422Z,5.40
2022-11-28T09:26:10.146Z,5.30
2022-11-28T09:28:37.372Z,5.20
2022-11-28T09:31:06.350Z,5.00
2022-11-28T09:33:34.296Z,4.90
2022-11-28T09:36:21.866Z,4.80
2022-11-28T09:38:49.268Z,4.70
2022-11-28T09:41:22.054Z,4.80
2022-11-28T09:43:54.700Z,4.80
2022-11-28T09:46:28.976Z,4.80
2022-11-28T09:49:00.883Z,4.80
2022-11-28T09:51:42.630Z,4.80
2022-11-28T09:54:25.484Z,4.90
2022-11-28T09:56:52.576Z,5.00
2022-11-28T09:59:28.386Z,5.00
2022-11-28T10:02:26.307Z,5.10
2022-11-28T10:05:01.634Z,5.10
2022-11-28T10:07:40.789Z,5.10
2022-11-28T10:10:37.952Z,5.20
2022-11-28T10:13:41.134Z,5.10
2022-11-28T10:16:27.234Z,5.30
2022-11-28T10:19:09.914Z,5.30
2022-11-28T10:21:59.268Z,5.30
2022-11-28T10:24:50.075Z,5.40
2022-11-28T10:27:20.144Z,5.50
2022-11-28T10:29:56.819Z,5.50
2022-11-28T10:32:36.443Z,5.70
2022-11-28T10:35:25.256Z,5.70
2022-11-28T10:37:54.927Z,5.70
2022-11-28T10:40:30.751Z,5.70
2022-11-28T10:43:03.272Z,5.70
2022-11-28T10:45:30.202Z,5.80
2022-11-28T10:47:57.149Z,5.80
2022-11-28T10:51:03.891Z,5.90
2022-11-28T10:53:51.115Z,5.90
2022-11-28T10:56:35.647Z,5.90
2022-11-28T10:59:19.003Z,6.00
2022-11-28T11:01:50.148Z,6.00
2022-11-28T11:04:20.419Z,6.00
2022-11-28T11:07:13.833Z,5.90
2022-11-28T11:09:45.915Z,5.90
2022-11-28T11:12:25.569Z,5.90
2022-11-28T11:14:52.640Z,5.80
2022-11-28T11:17:37.753Z,5.90
2022-11-28T11:20:23.033Z,6.00
2022-11-28T11:22:58.573Z,6.10
2022-11-28T11:25:28.220Z,6.20
2022-11-28T11:27:57.436Z,6.10
2022-11-28T11:30:38.881Z,6.20
2022-11-28T11:33:12.374Z,6.20
2022-11-28T11:35:45.925Z,6.20
2022-11-28T11:38:17.404Z,6.30
2022-11-28T11:40:45.207Z,6.30
2022-11-28T11:43:28.193Z,6.40
2022-11-28T11:46:12.686Z,6.20
2022-11-28T11:48:42.284Z,6.10
2022-11-28T11:51:21.730Z,6.10
2022-11-28T11:53:49.006Z,6.10
2022-11-28T11:56:15.966Z,6.20
2022-11-28T11:58:48.277Z,6.20
2022-11-28T12:01:17.634Z,6.20
2022-11-28T12:03:56.300Z,6.20
2022-11-28T12:06:28.801Z,6.40
2022-11-28T12:09:27.572Z,6.50
2022-11-28T12:12:05.086Z,6.60
2022-11-28T12:14:34.146Z,6.80
2022-11-28T12:17:46.788Z,6.80
2022-11-28T12:20:26.633Z,6.90
2022-11-28T12:23:31.210Z,7.00
2022-11-28T12:26:01.050Z,7.00
2022-11-28T12:28:49.631Z,7.00
2022-11-28T12:31:42.161Z,7.00
2022-11-28T12:34:24.155Z,7.00
2022-11-28T12:37:14.882Z,7.10
2022-11-28T12:39:50.319Z,7.20
2022-11-28T12:42:41.764Z,7.20
2022-11-28T12:45:37.756Z,7.50
2022-11-28T12:48:13.415Z,7.40
2022-11-28T12:50:44.337Z,7.40
2022-11-28T12:53:52.017Z,7.40
2022-11-28T12:56:42.165Z,7.50
2022-11-28T12:59:42.269Z,7.50
2022-11-28T13:02:43.795Z,7.70
2022-11-28T13:05:23.043Z,7.70
2022-11-28T13:08:07.636Z,7.70
2022-11-28T13:10:45.871Z,7.70
2022-11-28T13:13:25.169Z,7.80
2022-11-28T13:16:27.033Z,7.70
2022-11-28T13:19:21.229Z,7.60
2022-11-28T13:21:55.752Z,7.70
2022-11-28T13:24:33.113Z,7.60
2022-11-28T13:27:12.883Z,7.70
2022-11-28T13:30:14.374Z,7.80
2022-11-28T13:33:27.477Z,7.70
2022-11-28T13:35:55.032Z,7.80
2022-11-28T13:39:11.394Z,7.80
2022-11-28T13:42:16.158Z,7.80
2022-11-28T13:44:57.793Z,7.90
2022-11-28T13:47:27.813Z,8.10
2022-11-28T13:50:25.655Z,8.10
2022-11-28T13:53:02.290Z,8.00
2022-11-28T13:55:38.360Z,8.00
2022-11-28T13:58:32.861Z,8.00
2022-11-28T14:01:08.102Z,7.90
2022-11-28T14:03:44.253Z,7.90
2022-11-28T14:06:14.696Z,7.80
2022-11-28T14:08:44.374Z,7.70
2022-11-28T14:11:46.470Z,7.70
2022-11-28T14:14:43.515Z,7.60
2022-11-28T14:17:19.917Z,7.60
2022-11-28T14:20:24.553Z,7.60
2022-11-28T14:23:12.286Z,7.50
2022-11-28T14:25:45.511Z,7.50
2022-11-28T14:28:23.845Z,7.40
2022-11-28T14:30:52.856Z,7.30
2022-11-28T14:33:42.504Z,7.30
2022-11-28T14:36:22.733Z,7.20
2022-11-28T14:39:14.876Z,7.20
2022-11-28T14:42:58.724Z,7.10
2022-11-28T14:45:33.420Z,7.20
2022-11-28T14:48:30.243Z,7.10
2022-11-28T14:51:01.744Z,6.90
2022-11-28T14:53:36.423Z,6.90
2022-11-28T14:56:16.094Z,6.80
2022-11-28T14:58:51.146Z,6.80
2022-11-28T15:01:40.800Z,6.70
2022-11-28T15:04:19.710Z,6.70
2022-11-28T15:06:50.397Z,6.70
2022-11-28T15:09:29.150Z,6.60
2022-11-28T15:12:01.587Z,6.60
2022-11-28T15:14:30.043Z,6.50
2022-11-28T15:17:10.611Z,6.50
2022-11-28T15:19:44.346Z,6.50
2022-11-28T15:22:41.130Z,6.40
2022-11-28T15:25:18.072Z,6.40
2022-11-28T15:27:45.803Z,6.30
2022-11-28T15:30:22.713Z,6.30
2022-11-28T15:32:50.394Z,6.20
2022-11-28T15:35:18.947Z,6.10
2022-11-28T15:37:55.628Z,6.00
2022-11-28T15:40:49.152Z,6.00
2022-11-28T15:43:16.508Z,5.90
2022-11-28T15:45:43.560Z,5.80
2022-11-28T15:48:39.764Z,5.80
2022-11-28T15:51:08.240Z,5.70
2022-11-28T15:53:42.214Z,5.70
2022-11-28T15:56:15.067Z,5.70
2022-11-28T15:58:51.809Z,5.60
2022-11-28T16:01:24.333Z,5.60
2022-11-28T16:04:01.130Z,5.60
2022-11-28T16:06:34.266Z,5.50
2022-11-28T16:09:05.911Z,5.50
2022-11-28T16:11:35.425Z,5.50
2022-11-28T16:14:09.283Z,5.50
2022-11-28T16:16:38.889Z,5.50
2022-11-28T16:19:23.450Z,5.50
2022-11-28T16:21:57.009Z,5.40
2022-11-28T16:24:31.207Z,5.40
2022-11-28T16:27:04.574Z,5.40
2022-11-28T16:29:34.953Z,5.40
2022-11-28T16:32:23.376Z,5.40
2022-11-28T16:34:52.093Z,5.40
2022-11-28T16:37:25.327Z,5.30
2022-11-28T16:40:01.297Z,5.30
2022-11-28T16:42:28.431Z,5.30
2022-11-28T16:44:55.288Z,5.30
2022-11-28T16:47:31.043Z,5.30
2022-11-28T16:50:16.052Z,5.30
2022-11-28T16:52:49.146Z,5.30
2022-11-28T16:55:32.276Z,5.30
2022-11-28T16:58:22.818Z,5.30
2022-11-28T17:00:59.807Z,5.30
2022-11-28T17:03:52.756Z,5.30
2022-11-28T17:06:34.163Z,5.30
2022-11-28T17:09:02.052Z,5.30
2022-11-28T17:11:32.805Z,5.30
2022-11-28T17:14:02.422Z,5.30
2022-11-28T17:16:33.319Z,5.30
2022-11-28T17:19:00.358Z,5.20
2022-11-28T17:21:33.140Z,5.20
2022-11-28T17:24:02.819Z,5.20
2022-11-28T17:26:29.708Z,5.20
2022-11-28T17:28:58.790Z,5.20
2022-11-28T17:31:25.593Z,5.20
2022-11-28T17:33:52.464Z,5.10
2022-11-28T17:36:19.269Z,5.10
2022-11-28T17:38:46.084Z,5.10
2022-11-28T17:41:14.562Z,5.10
2022-11-28T17:43:42.519Z,5.10
2022-11-28T17:46:09.888Z,5.10
2022-11-28T17:48:37.338Z,5.20
2022-11-28T17:51:04.845Z,5.10
2022-11-28T17:53:32.344Z,5.10
2022-11-28T17:55:59.897Z,5.10
2022-11-28T17:58:28.889Z,5.00
2022-11-28T18:01:00.536Z,5.00
2022-11-28T18:03:29.122Z,5.00
2022-11-28T18:05:56.001Z,5.00
2022-11-28T18:08:22.944Z,5.00
2022-11-28T18:10:51.095Z,5.00
2022-11-28T18:13:18.128Z,5.00
2022-11-28T18:15:47.562Z,5.00
2022-11-28T18:18:14.725Z,5.00
2022-11-28T18:20:41.757Z,5.00
2022-11-28T18:23:11.069Z,5.00
2022-11-28T18:25:43.842Z,5.00
2022-11-28T18:28:17.268Z,4.90
2022-11-28T18:30:47.701Z,4.90
2022-11-28T18:33:15.717Z,4.90
2022-11-28T18:35:42.899Z,4.90
2022-11-28T18:38:12.162Z,4.90
2022-11-28T18:40:39.471Z,4.90
2022-11-28T18:43:06.570Z,4.90
2022-11-28T18:45:34.738Z,4.90
2022-11-28T18:48:02.106Z,4.90
2022-11-28T18:50:29.703Z,4.90
2022-11-28T18:52:57.029Z,4.90
2022-11-28T18:55:23.985Z,4.90
2022-11-28T18:57:50.866Z,4.90
2022-11-28T19:00:18.256Z,4.90
2022-11-28T19:02:45.161Z,4.90
2022-11-28T19:05:12.667Z,4.90
2022-11-28T19:07:39.743Z,4.90
2022-11-28T19:10:08.550Z,4.90
2022-11-28T19:12:35.503Z,4.90
2022-11-28T19:15:03.258Z,4.90
2022-11-28T19:17:30.130Z,4.90
2022-11-28T19:19:57.127Z,4.90
2022-11-28T19:22:24.050Z,4.90
2022-11-28T19:24:50.822Z,4.90
2022-11-28T19:27:17.810Z,5.00
2022-11-28T19:29:45.012Z,4.90
2022-11-28T19:32:13.509Z,5.00
2022-11-28T19:34:40.317Z,4.90
2022-11-28T19:37:07.256Z,5.00
2022-11-28T19:39:34.068Z,5.00
2022-11-28T19:42:01.059Z,5.00
2022-11-28T19:44:29.159Z,5.00
2022-11-28T19:46:56.458Z,5.00
2022-11-28T19:49:24.734Z,5.00
2022-11-28T19:51:52.363Z,5.00
2022-11-28T19:54:20.924Z,5.00
2022-11-28T19:56:49.055Z,5.00
2022-11-28T19:59:16.767Z,5.00
2022-11-28T20:01:44.080Z,4.90
2022-11-28T20:04:11.326Z,4.90
2022-11-28T20:06:38.601Z,4.90
2022-11-28T20:09:08.744Z,4.90
2022-11-28T20:11:39.911Z,4.80
2022-11-28T20:14:11.887Z,4.80
2022-11-28T20:16:40.341Z,4.80
2022-11-28T20:19:11.005Z,4.80
2022-11-28T20:21:38.334Z,4.80
2022-11-28T20:24:07.572Z,4.80
2022-11-28T20:26:41.355Z,4.80
2022-11-28T20:29:12.090Z,4.80
2022-11-28T20:31:45.640Z,4.70
2022-11-28T20:34:16.425Z,4.80
2022-11-28T20:36:44.088Z,4.70
2022-11-28T20:39:12.504Z,4.80
2022-11-28T20:41:39.695Z,4.80
2022-11-28T20:44:06.585Z,4.80
2022-11-28T20:46:35.794Z,4.80
2022-11-28T20:49:05.419Z,4.80
2022-11-28T20:51:33.919Z,4.80
2022-11-28T20:54:01.008Z,4.80
2022-11-28T20:56:30.745Z,4.90
2022-11-28T20:59:00.823Z,4.80
2022-11-28T21:01:36.103Z,4.80
2022-11-28T21:04:04.972Z,4.90
2022-11-28T21:06:31.890Z,4.90
2022-11-28T21:08:58.968Z,4.80
2022-11-28T21:11:57.388Z,4.90
2022-11-28T21:14:18.880Z,4.90
2022-11-28T21:16:45.906Z,4.90
2022-11-28T21:19:12.795Z,4.90
2022-11-28T21:21:40.273Z,4.90
2022-11-28T21:24:10.646Z,4.90
2022-11-28T21:26:41.717Z,4.90
2022-11-28T21:29:12.158Z,4.90
2022-11-28T21:31:42.229Z,4.90
2022-11-28T21:34:14.127Z,4.90
2022-11-28T21:36:41.306Z,4.90
2022-11-28T21:39:11.558Z,4.90
2022-11-28T21:41:38.449Z,4.90
2022-11-28T21:44:05.436Z,4.90
2022-11-28T21:46:33.003Z,5.00
2022-11-28T21:49:00.434Z,4.90
2022-11-28T21:51:30.656Z,4.90
2022-11-28T21:53:58.198Z,4.90
2022-11-28T21:56:25.566Z,4.90
2022-11-28T21:58:53.956Z,4.90
2022-11-28T22:01:21.604Z,4.90
2022-11-28T22:03:49.079Z,4.90
2022-11-28T22:06:25.649Z,4.80
2022-11-28T22:08:54.546Z,4.90
2022-11-28T22:11:22.895Z,4.80
2022-11-28T22:13:50.859Z,4.80
2022-11-28T22:16:23.597Z,4.80
2022-11-28T22:18:51.989Z,4.80
2022-11-28T22:21:50.572Z,4.80
2022-11-28T22:24:08.211Z,4.80
2022-11-28T22:26:35.308Z,4.80
2022-11-28T22:29:04.164Z,4.80
2022-11-28T22:31:32.083Z,4.80
2022-11-28T22:33:59.167Z,4.80
2022-11-28T22:36:26.063Z,4.80
2022-11-28T22:38:58.079Z,4.80
2022-11-28T22:41:29.178Z,4.80
2022-11-28T22:44:00.692Z,4.80
2022-11-28T22:46:28.955Z,4.80
2022-11-28T22:49:03.072Z,4.80
2022-11-28T22:51:31.371Z,4.80
2022-11-28T22:54:01.994Z,4.80
2022-11-28T22:56:31.441Z,4.80
2022-11-28T22:58:58.831Z,4.80
2022-11-28T23:01:29.655Z,4.80
2022-11-28T23:03:57.557Z,4.80
2022-11-28T23:06:27.076Z,4.80
2022-11-28T23:08:56.458Z,4.90
2022-11-28T23:11:27.812Z,4.80
2022-11-28T23:13:55.163Z,4.80
2022-11-28T23:16:31.267Z,4.80
2022-11-28T23:19:02.279Z,4.80
2022-11-28T23:21:35.535Z,4.90
2022-11-28T23:24:04.536Z,4.90
2022-11-28T23:26:32.803Z,4.90
2022-11-28T23:29:04.393Z,4.90
2022-11-28T23:31:33.664Z,4.90
2022-11-28T23:34:01.534Z,5.00
2022-11-28T23:36:33.660Z,4.90
2022-11-28T23:39:17.839Z,4.90
2022-11-28T23:41:45.423Z,4.90
2022-11-28T23:44:13.457Z,4.90
2022-11-28T23:46:41.000Z,4.90
2022-11-28T23:49:08.142Z,4.90
2022-11-28T23:51:35.730Z,5.00
2022-11-28T23:54:02.548Z,5.00
2022-11-28T23:56:32.659Z,5.00
2022-11-28T23:59:01.896Z,5.00
